createdAt,value
2023-02-19T00:01:10.744Z,101341.88
2023-02-19T00:03:38.417Z,101343.63
2023-02-19T00:06:07.536Z,101341.88
2023-02-19T00:08:35.368Z,101346.22
2023-02-19T00:11:10.261Z,101340.09
2023-02-19T00:13:41.980Z,101336.78
2023-02-19T00:16:32.872Z,101333.22
2023-02-19T00:19:01.034Z,101335.16
2023-02-19T00:21:28.356Z,101339.53
2023-02-19T00:23:57.714Z,101326.94
2023-02-19T00:26:24.316Z,101336.94
2023-02-19T00:28:52.715Z,101327.34
2023-02-19T00:31:25.080Z,101313.34
2023-02-19T00:33:57.116Z,101319.69
2023-02-19T00:36:25.646Z,101317.75
2023-02-19T00:38:52.382Z,101323.66
2023-02-19T00:41:21.228Z,101315.97
2023-02-19T00:43:59.377Z,101313.34
2023-02-19T00:46:27.611Z,101299.69
2023-02-19T00:48:54.753Z,101315.16
2023-02-19T00:51:25.903Z,101315.97
2023-02-19T00:53:53.206Z,101311.31
2023-02-19T00:56:19.900Z,101304.47
2023-02-19T00:58:48.428Z,101308.84
2023-02-19T01:01:16.455Z,101309.69
2023-02-19T01:03:44.715Z,101308.03
2023-02-19T01:06:14.088Z,101305.84
2023-02-19T01:08:40.680Z,101304.31
2023-02-19T01:11:08.634Z,101298.72
2023-02-19T01:13:36.287Z,101300.22
2023-02-19T01:16:23.934Z,101295.19
2023-02-19T01:18:51.141Z,101297.75
2023-02-19T01:21:24.156Z,101301.19
2023-02-19T01:23:52.017Z,101303.75
2023-02-19T01:26:24.292Z,101297.06
2023-02-19T01:28:51.568Z,101300.91
2023-02-19T01:31:23.944Z,101301.59
2023-02-19T01:33:54.420Z,101302.16
2023-02-19T01:36:22.333Z,101302.84
2023-02-19T01:38:49.749Z,101305.16
2023-02-19T01:41:22.897Z,101307.22
2023-02-19T01:43:58.662Z,101299.81
2023-02-19T01:46:29.780Z,101302.03
2023-02-19T01:48:59.891Z,101302.94
2023-02-19T01:51:27.798Z,101302.44
2023-02-19T01:53:59.089Z,101307.91
2023-02-19T01:56:27.191Z,101306.94
2023-02-19T01:58:54.395Z,101314.31
2023-02-19T02:01:20.967Z,101311.31
2023-02-19T02:03:49.610Z,101308.44
2023-02-19T02:06:28.424Z,101316.41
2023-02-19T02:09:16.286Z,101311.31
2023-02-19T02:11:47.573Z,101317.34
2023-02-19T02:14:16.862Z,101308.84
2023-02-19T02:17:15.852Z,101313.09
2023-02-19T02:20:04.341Z,101313.25
2023-02-19T02:22:59.468Z,101317.09
2023-02-19T02:25:45.167Z,101316.81
2023-02-19T02:28:30.550Z,101314.63
2023-02-19T02:31:13.854Z,101306.81
2023-02-19T02:33:54.444Z,101306.13
2023-02-19T02:36:31.169Z,101309.69
2023-02-19T02:38:59.341Z,101308.31
2023-02-19T02:41:26.394Z,101301.72
2023-02-19T02:43:52.903Z,101309.28
2023-02-19T02:46:25.473Z,101314.34
2023-02-19T02:49:05.363Z,101312.13
2023-02-19T02:51:42.754Z,101306.94
2023-02-19T02:54:41.200Z,101305.16
2023-02-19T02:57:14.754Z,101311.31
2023-02-19T02:59:56.646Z,101313.09
2023-02-19T03:02:28.480Z,101321.06
2023-02-19T03:05:20.371Z,101322.84
2023-02-19T03:08:11.828Z,101322.44
2023-02-19T03:10:51.332Z,101325.84
2023-02-19T03:13:56.549Z,101327.63
2023-02-19T03:16:47.012Z,101326.81
2023-02-19T03:19:20.658Z,101336.25
2023-02-19T03:21:51.672Z,101336.25
2023-02-19T03:24:41.378Z,101338.16
2023-02-19T03:27:12.726Z,101346.41
2023-02-19T03:29:45.254Z,101344.63
2023-02-19T03:32:20.040Z,101347.50
2023-02-19T03:34:57.327Z,101344.88
2023-02-19T03:37:32.910Z,101352.16
2023-02-19T03:40:01.304Z,101346.13
2023-02-19T03:43:06.098Z,101353.66
2023-02-19T03:45:35.635Z,101356.13
2023-02-19T03:48:18.112Z,101360.66
2023-02-19T03:51:08.507Z,101356.25
2023-02-19T03:53:50.792Z,101355.03
2023-02-19T03:56:30.841Z,101366.25
2023-02-19T03:59:04.191Z,101361.88
2023-02-19T04:01:43.877Z,101369.00
2023-02-19T04:04:11.945Z,101371.59
2023-02-19T04:06:42.250Z,101375.16
2023-02-19T04:09:12.952Z,101379.56
2023-02-19T04:11:41.565Z,101371.75
2023-02-19T04:14:58.791Z,101376.97
2023-02-19T04:17:37.346Z,101390.34
2023-02-19T04:20:08.714Z,101390.06
2023-02-19T04:22:37.233Z,101391.84
2023-02-19T04:25:04.456Z,101398.69
2023-02-19T04:27:31.237Z,101402.97
2023-02-19T04:29:57.733Z,101397.06
2023-02-19T04:32:24.309Z,101404.88
2023-02-19T04:34:52.826Z,101405.00
2023-02-19T04:37:20.564Z,101406.94
2023-02-19T04:39:48.633Z,101409.41
2023-02-19T04:42:15.471Z,101411.84
2023-02-19T04:44:42.011Z,101411.03
2023-02-19T04:47:08.623Z,101419.66
2023-02-19T04:49:35.197Z,101427.47
2023-02-19T04:52:01.769Z,101428.44
2023-02-19T04:54:28.310Z,101425.16
2023-02-19T04:56:54.875Z,101426.13
2023-02-19T04:59:21.383Z,101427.47
2023-02-19T05:01:47.924Z,101429.09
2023-02-19T05:04:14.563Z,101439.25
2023-02-19T05:06:41.201Z,101440.34
2023-02-19T05:09:07.875Z,101451.59
2023-02-19T05:11:34.457Z,101449.94
2023-02-19T05:14:01.343Z,101455.94
2023-02-19T05:16:27.932Z,101455.13
2023-02-19T05:18:54.475Z,101465.25
2023-02-19T05:21:21.116Z,101461.69
2023-02-19T05:23:47.616Z,101468.84
2023-02-19T05:26:18.797Z,101471.69
2023-02-19T05:28:46.748Z,101482.09
2023-02-19T05:31:14.231Z,101480.47
2023-02-19T05:33:42.960Z,101480.47
2023-02-19T05:36:12.898Z,101483.06
2023-02-19T05:38:40.615Z,101485.00
2023-02-19T05:41:15.513Z,101495.41
2023-02-19T05:43:43.397Z,101481.44
2023-02-19T05:46:13.688Z,101491.84
2023-02-19T05:48:40.669Z,101503.88
2023-02-19T05:51:13.717Z,101510.06
2023-02-19T05:53:41.308Z,101505.81
2023-02-19T05:56:26.070Z,101513.63
2023-02-19T05:58:53.721Z,101511.97
2023-02-19T06:01:23.014Z,101510.19
2023-02-19T06:03:49.604Z,101507.69
2023-02-19T06:06:18.253Z,101512.91
2023-02-19T06:08:45.148Z,101509.47
2023-02-19T06:11:12.023Z,101515.50
2023-02-19T06:13:38.671Z,101522.50
2023-02-19T06:16:07.429Z,101514.81
2023-02-19T06:18:34.330Z,101520.31
2023-02-19T06:21:06.025Z,101526.06
2023-02-19T06:23:32.813Z,101530.59
2023-02-19T06:26:17.676Z,101528.78
2023-02-19T06:28:45.334Z,101528.94
2023-02-19T06:31:12.392Z,101539.34
2023-02-19T06:33:40.573Z,101535.91
2023-02-19T06:36:13.161Z,101541.94
2023-02-19T06:38:39.763Z,101541.22
2023-02-19T06:41:08.108Z,101547.97
2023-02-19T06:43:35.001Z,101552.47
2023-02-19T06:46:03.693Z,101557.56
2023-02-19T06:48:31.592Z,101552.59
2023-02-19T06:50:58.650Z,101553.41
2023-02-19T06:53:25.356Z,101552.59
2023-02-19T06:56:04.487Z,101569.03
2023-02-19T06:58:32.059Z,101568.22
2023-02-19T07:00:59.324Z,101574.22
2023-02-19T07:03:26.524Z,101589.03
2023-02-19T07:05:53.152Z,101596.81
2023-02-19T07:08:20.049Z,101601.22
2023-02-19T07:10:53.596Z,101596.97
2023-02-19T07:13:20.214Z,101600.53
2023-02-19T07:15:46.746Z,101590.94
2023-02-19T07:18:13.332Z,101593.66
2023-02-19T07:20:39.985Z,101606.53
2023-02-19T07:23:06.539Z,101607.38
2023-02-19T07:25:33.098Z,101619.41
2023-02-19T07:27:59.744Z,101617.63
2023-02-19T07:30:26.432Z,101616.81
2023-02-19T07:32:53.014Z,101628.88
2023-02-19T07:35:19.549Z,101636.66
2023-02-19T07:37:46.147Z,101638.31
2023-02-19T07:40:12.718Z,101642.69
2023-02-19T07:42:39.407Z,101642.59
2023-02-19T07:45:06.339Z,101653.81
2023-02-19T07:47:32.908Z,101657.34
2023-02-19T07:49:59.475Z,101661.28
2023-02-19T07:52:26.110Z,101663.25
2023-02-19T07:54:52.637Z,101667.50
2023-02-19T07:57:19.281Z,101672.84
2023-02-19T07:59:45.916Z,101684.91
2023-02-19T08:02:38.654Z,101680.50
2023-02-19T08:05:06.621Z,101690.94
2023-02-19T08:07:36.864Z,101687.50
2023-02-19T08:10:23.054Z,101682.28
2023-02-19T08:13:18.951Z,101696.94
2023-02-19T08:15:46.937Z,101696.81
2023-02-19T08:18:16.278Z,101695.03
2023-02-19T08:20:43.628Z,101701.91
2023-02-19T08:23:11.558Z,101699.16
2023-02-19T08:25:39.395Z,101701.63
2023-02-19T08:28:07.655Z,101701.63
2023-02-19T08:30:35.048Z,101716.16
2023-02-19T08:33:02.503Z,101722.22
2023-02-19T08:35:29.320Z,101717.13
2023-02-19T08:37:59.297Z,101718.66
2023-02-19T08:40:27.016Z,101727.28
2023-02-19T08:42:53.753Z,101716.72
2023-02-19T08:45:20.261Z,101715.63
2023-02-19T08:47:46.928Z,101710.44
2023-02-19T08:50:13.458Z,101715.53
2023-02-19T08:52:39.991Z,101719.66
2023-02-19T08:55:07.126Z,101719.50
2023-02-19T08:57:37.621Z,101730.06
2023-02-19T09:00:06.467Z,101728.16
2023-02-19T09:02:33.357Z,101723.66
2023-02-19T09:04:59.906Z,101729.69
2023-02-19T09:07:26.726Z,101726.94
2023-02-19T09:09:53.444Z,101729.41
2023-02-19T09:12:20.524Z,101740.53
2023-02-19T09:14:47.173Z,101741.22
2023-02-19T09:17:13.747Z,101746.69
2023-02-19T09:19:40.367Z,101742.75
2023-02-19T09:22:06.977Z,101744.50
2023-02-19T09:24:33.605Z,101751.63
2023-02-19T09:27:00.190Z,101756.44
2023-02-19T09:29:28.282Z,101769.72
2023-02-19T09:31:59.877Z,101767.81
2023-02-19T09:34:28.204Z,101776.31
2023-02-19T09:36:55.258Z,101777.72
2023-02-19T09:39:21.920Z,101772.75
2023-02-19T09:41:58.239Z,101787.19
2023-02-19T09:44:29.229Z,101780.19
2023-02-19T09:46:56.435Z,101772.38
2023-02-19T09:49:27.192Z,101775.66
2023-02-19T09:52:00.320Z,101772.94
2023-02-19T09:54:30.522Z,101788.44
2023-02-19T09:57:00.207Z,101778.84
2023-02-19T09:59:31.712Z,101786.78
2023-02-19T10:02:04.311Z,101794.59
2023-02-19T10:04:30.897Z,101791.88
2023-02-19T10:07:03.339Z,101808.16
2023-02-19T10:09:30.988Z,101812.56
2023-02-19T10:11:59.479Z,101821.31
2023-02-19T10:14:34.802Z,101843.81
2023-02-19T10:17:05.226Z,101832.84
2023-02-19T10:19:33.489Z,101857.78
2023-02-19T10:22:02.696Z,101866.03
2023-02-19T10:24:30.262Z,101859.88
2023-02-19T10:26:57.061Z,101852.66
2023-02-19T10:29:24.753Z,101849.09
2023-02-19T10:32:17.085Z,101855.41
2023-02-19T10:34:43.719Z,101867.34
2023-02-19T10:37:18.552Z,101868.88
2023-02-19T10:39:47.705Z,101877.06
2023-02-19T10:42:22.046Z,101875.28
2023-02-19T10:44:58.455Z,101875.06
2023-02-19T10:47:27.303Z,101880.94
2023-02-19T10:49:58.310Z,101879.03
2023-02-19T10:52:28.288Z,101878.22
2023-02-19T10:55:24.606Z,101884.13
2023-02-19T10:57:51.331Z,101885.06
2023-02-19T11:00:30.118Z,101890.84
2023-02-19T11:03:21.119Z,101895.00
2023-02-19T11:06:09.158Z,101902.19
2023-02-19T11:08:56.092Z,101911.06
2023-02-19T11:11:27.677Z,101919.03
2023-02-19T11:13:59.293Z,101909.69
2023-02-19T11:16:42.288Z,101908.28
2023-02-19T11:19:39.973Z,101910.53
2023-02-19T11:22:28.642Z,101913.81
2023-02-19T11:24:59.335Z,101909.69
2023-02-19T11:27:26.145Z,101903.06
2023-02-19T11:29:52.734Z,101907.19
2023-02-19T11:32:25.670Z,101911.47
2023-02-19T11:35:13.312Z,101904.50
2023-02-19T11:37:57.713Z,101905.31
2023-02-19T11:40:43.994Z,101900.22
2023-02-19T11:43:29.443Z,101880.22
2023-02-19T11:46:26.284Z,101885.28
2023-02-19T11:49:20.519Z,101886.94
2023-02-19T11:51:52.740Z,101894.06
2023-02-19T11:54:38.266Z,101900.22
2023-02-19T11:57:23.729Z,101897.03
2023-02-19T11:59:53.291Z,101895.84
2023-02-19T12:02:47.306Z,101884.00
2023-02-19T12:05:47.981Z,101882.72
2023-02-19T12:08:37.811Z,101889.44
2023-02-19T12:11:19.720Z,101878.09
2023-02-19T12:13:56.505Z,101884.81
2023-02-19T12:16:39.860Z,101888.38
2023-02-19T12:19:42.289Z,101906.03
2023-02-19T12:22:34.554Z,101897.25
2023-02-19T12:25:10.210Z,101903.53
2023-02-19T12:28:31.647Z,101914.19
2023-02-19T12:31:00.968Z,101909.94
2023-02-19T12:33:39.275Z,101907.34
2023-02-19T12:36:30.435Z,101908.41
2023-02-19T12:39:34.354Z,101906.88
2023-02-19T12:42:15.933Z,101913.38
2023-02-19T12:44:47.831Z,101908.47
2023-02-19T12:47:23.925Z,101908.88
2023-02-19T12:50:04.531Z,101917.69
2023-02-19T12:52:36.713Z,101914.00
2023-02-19T12:55:32.121Z,101900.41
2023-02-19T12:58:04.310Z,101906.75
2023-02-19T13:00:43.073Z,101913.16
2023-02-19T13:03:34.708Z,101912.22
2023-02-19T13:06:04.436Z,101914.44
2023-02-19T13:09:05.962Z,101909.28
2023-02-19T13:11:49.341Z,101906.69
2023-02-19T13:14:34.234Z,101917.81
2023-02-19T13:17:09.342Z,101912.47
2023-02-19T13:19:37.279Z,101908.66
2023-02-19T13:22:34.978Z,101918.13
2023-02-19T13:25:02.792Z,101927.53
2023-02-19T13:28:05.036Z,101923.16
2023-02-19T13:30:48.811Z,101917.56
2023-02-19T13:33:40.526Z,101916.72
2023-02-19T13:36:27.260Z,101924.09
2023-02-19T13:38:57.328Z,101926.25
2023-02-19T13:41:29.966Z,101935.34
2023-02-19T13:44:03.511Z,101936.88
2023-02-19T13:46:37.835Z,101940.19
2023-02-19T13:49:22.866Z,101942.53
2023-02-19T13:51:56.766Z,101936.25
2023-02-19T13:54:40.092Z,101936.81
2023-02-19T13:57:22.266Z,101948.19
2023-02-19T13:59:56.433Z,101954.25
2023-02-19T14:02:23.082Z,101957.78
2023-02-19T14:04:55.964Z,101953.97
2023-02-19T14:07:22.444Z,101961.78
2023-02-19T14:09:49.423Z,101965.94
2023-02-19T14:12:16.417Z,101975.25
2023-02-19T14:14:46.288Z,101973.75
2023-02-19T14:17:37.755Z,101969.09
2023-02-19T14:20:11.573Z,101978.31
2023-02-19T14:22:49.906Z,101977.50
2023-02-19T14:25:29.285Z,101985.84
2023-02-19T14:28:04.939Z,101988.78
2023-02-19T14:30:34.320Z,101990.00
2023-02-19T14:33:10.499Z,101987.41
2023-02-19T14:35:43.426Z,101984.06
2023-02-19T14:38:35.616Z,101993.00
2023-02-19T14:41:03.040Z,102003.16
2023-02-19T14:43:30.623Z,101999.72
2023-02-19T14:46:01.767Z,102003.28
2023-02-19T14:48:37.669Z,102007.44
2023-02-19T14:51:14.130Z,102001.41
2023-02-19T14:53:44.886Z,102005.75
2023-02-19T14:56:28.384Z,102000.69
2023-02-19T14:59:13.151Z,102008.50
2023-02-19T15:01:40.483Z,102010.56
2023-02-19T15:04:19.596Z,102008.19
2023-02-19T15:06:46.358Z,101996.94
2023-02-19T15:09:14.313Z,101992.31
2023-02-19T15:11:43.074Z,101993.50
2023-02-19T15:14:20.564Z,101983.22
2023-02-19T15:16:47.832Z,101980.63
2023-02-19T15:19:17.124Z,101978.00
2023-02-19T15:21:47.580Z,101974.44
2023-02-19T15:24:16.909Z,101960.72
2023-02-19T15:26:50.303Z,101961.66
2023-02-19T15:29:19.733Z,101966.47
2023-02-19T15:31:49.409Z,101959.63
2023-02-19T15:34:18.567Z,101953.81
2023-02-19T15:36:46.116Z,101947.47
2023-02-19T15:39:22.787Z,101939.66
2023-02-19T15:42:00.229Z,101936.94
2023-02-19T15:45:16.126Z,101934.91
2023-02-19T15:47:55.715Z,101924.31
2023-02-19T15:50:35.990Z,101927.47
2023-02-19T15:53:10.003Z,101933.50
2023-02-19T15:55:42.348Z,101936.25
2023-02-19T15:58:38.222Z,101935.66
2023-02-19T16:01:08.271Z,101952.25
2023-02-19T16:03:35.681Z,101956.78
2023-02-19T16:06:14.864Z,101949.91
2023-02-19T16:09:03.064Z,101949.59
2023-02-19T16:11:35.728Z,101957.88
2023-02-19T16:14:33.636Z,101972.78
2023-02-19T16:17:12.728Z,101972.94
2023-02-19T16:19:44.462Z,101983.34
2023-02-19T16:22:13.555Z,101988.09
2023-02-19T16:24:49.186Z,101990.72
2023-02-19T16:27:30.395Z,101995.91
2023-02-19T16:29:57.690Z,102001.88
2023-02-19T16:32:24.489Z,101993.47
2023-02-19T16:34:51.961Z,101995.94
2023-02-19T16:37:35.329Z,102000.47
2023-02-19T16:40:07.804Z,102020.97
2023-02-19T16:43:06.488Z,102022.75
2023-02-19T16:45:33.535Z,102023.22
2023-02-19T16:48:00.240Z,102026.06
2023-02-19T16:50:27.279Z,102036.97
2023-02-19T16:52:56.266Z,102046.44
2023-02-19T16:55:23.069Z,102050.25
2023-02-19T16:57:50.353Z,102053.53
2023-02-19T17:00:25.698Z,102068.00
2023-02-19T17:02:54.992Z,102070.03
2023-02-19T17:05:22.868Z,102065.63
2023-02-19T17:07:50.027Z,102088.13
2023-02-19T17:10:18.553Z,102087.09
2023-02-19T17:12:45.213Z,102090.66
2023-02-19T17:15:12.697Z,102095.47
2023-02-19T17:17:39.349Z,102094.78
2023-02-19T17:20:24.043Z,102104.50
2023-02-19T17:22:50.681Z,102114.56
2023-02-19T17:25:17.237Z,102113.72
2023-02-19T17:27:43.853Z,102110.88
2023-02-19T17:30:16.570Z,102106.03
2023-02-19T17:32:43.150Z,102116.44
2023-02-19T17:35:09.709Z,102106.88
2023-02-19T17:37:36.231Z,102121.78
2023-02-19T17:40:03.386Z,102120.59
2023-02-19T17:42:29.931Z,102118.81
2023-02-19T17:44:56.570Z,102122.97
2023-02-19T17:47:23.149Z,102121.63
2023-02-19T17:49:49.721Z,102130.78
2023-02-19T17:52:17.619Z,102123.66
2023-02-19T17:54:44.237Z,102125.06
2023-02-19T17:57:10.839Z,102130.53
2023-02-19T17:59:37.393Z,102135.97
2023-02-19T18:02:03.947Z,102138.34
2023-02-19T18:04:30.595Z,102143.06
2023-02-19T18:06:57.197Z,102140.94
2023-02-19T18:09:24.077Z,102138.06
2023-02-19T18:11:50.644Z,102149.44
2023-02-19T18:14:17.250Z,102147.53
2023-02-19T18:16:50.617Z,102147.53
2023-02-19T18:19:17.791Z,102146.16
2023-02-19T18:21:44.360Z,102158.34
2023-02-19T18:24:10.949Z,102152.88
2023-02-19T18:26:37.549Z,102148.75
2023-02-19T18:29:05.680Z,102147.56
2023-02-19T18:31:34.237Z,102152.31
2023-02-19T18:34:00.824Z,102151.56
2023-02-19T18:36:27.383Z,102149.44
2023-02-19T18:38:54.026Z,102154.19
2023-02-19T18:41:21.216Z,102159.28
2023-02-19T18:43:48.207Z,102168.75
2023-02-19T18:46:15.164Z,102171.34
2023-02-19T18:48:42.122Z,102173.25
2023-02-19T18:51:13.513Z,102175.84
2023-02-19T18:53:42.811Z,102175.59
2023-02-19T18:56:09.443Z,102177.13
2023-02-19T18:58:36.107Z,102172.66
2023-02-19T19:01:02.764Z,102173.34
2023-02-19T19:03:31.319Z,102181.50
2023-02-19T19:05:58.560Z,102178.06
2023-02-19T19:08:25.278Z,102184.00
2023-02-19T19:10:51.831Z,102183.75
2023-02-19T19:13:18.387Z,102175.97
2023-02-19T19:15:49.910Z,102179.88
2023-02-19T19:18:16.549Z,102180.00
2023-02-19T19:20:43.140Z,102182.72
2023-02-19T19:23:09.717Z,102189.56
2023-02-19T19:25:37.237Z,102195.81
2023-02-19T19:28:04.032Z,102196.91
2023-02-19T19:30:30.970Z,102198.81
2023-02-19T19:32:58.020Z,102216.06
2023-02-19T19:35:24.668Z,102206.84
2023-02-19T19:37:51.409Z,102197.84
2023-02-19T19:40:18.531Z,102201.41
2023-02-19T19:42:45.848Z,102205.66
2023-02-19T19:45:13.779Z,102191.22
2023-02-19T19:47:40.429Z,102189.91
2023-02-19T19:50:07.223Z,102183.28
2023-02-19T19:52:33.798Z,102192.28
2023-02-19T19:55:00.483Z,102196.88
2023-02-19T19:57:27.051Z,102188.25
2023-02-19T19:59:53.654Z,102195.00
2023-02-19T20:02:20.430Z,102192.50
2023-02-19T20:04:47.071Z,102206.47
2023-02-19T20:07:13.629Z,102202.91
2023-02-19T20:09:40.257Z,102208.59
2023-02-19T20:12:07.268Z,102217.47
2023-02-19T20:14:33.970Z,102225.16
2023-02-19T20:17:00.523Z,102223.72
2023-02-19T20:19:27.109Z,102218.16
2023-02-19T20:21:54.253Z,102224.31
2023-02-19T20:24:28.539Z,102230.13
2023-02-19T20:27:00.541Z,102224.91
2023-02-19T20:29:28.970Z,102221.50
2023-02-19T20:31:59.073Z,102216.84
2023-02-19T20:34:26.785Z,102212.47
2023-02-19T20:36:53.783Z,102216.75
2023-02-19T20:39:21.620Z,102214.03
2023-02-19T20:41:49.994Z,102213.28
2023-02-19T20:44:17.352Z,102219.56
2023-02-19T20:46:45.814Z,102222.28
2023-02-19T20:49:13.362Z,102229.59
2023-02-19T20:51:48.265Z,102234.09
2023-02-19T20:54:16.823Z,102246.38
2023-02-19T20:56:47.837Z,102250.97
2023-02-19T20:59:16.144Z,102251.91
2023-02-19T21:01:43.355Z,102256.38
2023-02-19T21:04:10.506Z,102257.47
2023-02-19T21:06:37.317Z,102252.72
2023-02-19T21:09:05.670Z,102259.06
2023-02-19T21:11:33.069Z,102253.16
2023-02-19T21:14:00.027Z,102253.25
2023-02-19T21:16:31.282Z,102249.09
2023-02-19T21:18:58.726Z,102245.69
2023-02-19T21:21:26.451Z,102247.66
2023-02-19T21:23:57.585Z,102238.31
2023-02-19T21:26:25.196Z,102235.09
2023-02-19T21:28:52.285Z,102243.03
2023-02-19T21:31:20.710Z,102239.59
2023-02-19T21:33:47.462Z,102251.06
2023-02-19T21:36:14.366Z,102244.41
2023-02-19T21:38:41.037Z,102246.38
2023-02-19T21:41:07.654Z,102263.06
2023-02-19T21:43:34.230Z,102255.38
2023-02-19T21:46:00.847Z,102258.63
2023-02-19T21:48:27.460Z,102258.34
2023-02-19T21:50:54.059Z,102262.41
2023-02-19T21:53:20.851Z,102258.25
2023-02-19T21:55:57.724Z,102256.06
2023-02-19T21:58:25.920Z,102249.53
2023-02-19T22:00:53.911Z,102240.59
2023-02-19T22:03:20.633Z,102239.31
2023-02-19T22:05:47.242Z,102242.44
2023-02-19T22:08:15.529Z,102236.41
2023-02-19T22:10:42.480Z,102237.25
2023-02-19T22:13:09.801Z,102248.97
2023-02-19T22:15:37.054Z,102244.94
2023-02-19T22:18:03.990Z,102247.44
2023-02-19T22:20:30.629Z,102245.66
2023-02-19T22:22:57.222Z,102251.47
2023-02-19T22:25:23.808Z,102249.91
2023-02-19T22:27:50.444Z,102259.72
2023-02-19T22:30:17.472Z,102252.75
2023-02-19T22:32:44.029Z,102247.56
2023-02-19T22:35:10.693Z,102250.16
2023-02-19T22:37:37.245Z,102246.72
2023-02-19T22:40:04.054Z,102248.47
2023-02-19T22:42:30.688Z,102248.78
2023-02-19T22:44:57.327Z,102252.19
2023-02-19T22:47:23.925Z,102247.88
2023-02-19T22:49:50.544Z,102244.50
2023-02-19T22:52:17.579Z,102236.94
2023-02-19T22:54:44.205Z,102251.81
2023-02-19T22:57:10.830Z,102264.78
2023-02-19T22:59:37.390Z,102255.53
2023-02-19T23:02:04.007Z,102251.28
2023-02-19T23:04:30.592Z,102240.28
2023-02-19T23:06:57.161Z,102246.53
2023-02-19T23:09:26.678Z,102237.78
2023-02-19T23:12:00.369Z,102246.63
2023-02-19T23:14:26.915Z,102239.75
2023-02-19T23:16:53.508Z,102233.97
2023-02-19T23:19:20.099Z,102236.75
2023-02-19T23:21:46.996Z,102236.06
2023-02-19T23:24:14.524Z,102232.75
2023-02-19T23:26:46.124Z,102233.88
2023-02-19T23:29:19.107Z,102233.88
2023-02-19T23:31:46.286Z,102226.81
2023-02-19T23:34:14.002Z,102234.00
2023-02-19T23:36:45.518Z,102222.97
2023-02-19T23:39:14.606Z,102231.00
2023-02-19T23:41:51.967Z,102232.97
2023-02-19T23:44:19.429Z,102218.22
2023-02-19T23:46:46.248Z,102222.69
2023-02-19T23:49:13.578Z,102222.16
2023-02-19T23:51:40.522Z,102225.72
2023-02-19T23:54:07.374Z,102219.78
2023-02-19T23:56:34.291Z,102213.16
2023-02-19T23:59:01.026Z,102210.34
